sensor_id;sensor_type;location;lat;lon;timestamp;temperature;humidity
59999;DHT22;45859;51.378;6.736;2023-08-12T00:01:22;19.90;99.90
59999;DHT22;45859;51.378;6.736;2023-08-12T00:03:50;20.00;99.90
59999;DHT22;45859;51.378;6.736;2023-08-12T00:06:16;20.00;99.90
59999;DHT22;45859;51.378;6.736;2023-08-12T00:08:42;20.00;99.90
59999;DHT22;45859;51.378;6.736;2023-08-12T00:11:07;20.00;99.90
59999;DHT22;45859;51.378;6.736;2023-08-12T00:13:33;19.90;99.90
59999;DHT22;45859;51.378;6.736;2023-08-12T00:15:59;19.90;99.90
59999;DHT22;45859;51.378;6.736;2023-08-12T00:18:25;19.90;99.90
59999;DHT22;45859;51.378;6.736;2023-08-12T00:20:50;19.90;99.90
59999;DHT22;45859;51.378;6.736;2023-08-12T00:23:16;20.00;99.90
59999;DHT22;45859;51.378;6.736;2023-08-12T00:25:42;20.00;99.90
59999;DHT22;45859;51.378;6.736;2023-08-12T00:28:08;19.90;99.90
59999;DHT22;45859;51.378;6.736;2023-08-12T00:30:33;19.90;99.90
59999;DHT22;45859;51.378;6.736;2023-08-12T00:32:59;19.90;99.90
59999;DHT22;45859;51.378;6.736;2023-08-12T00:35:25;19.90;99.90
59999;DHT22;45859;51.378;6.736;2023-08-12T00:37:50;19.90;99.90
59999;DHT22;45859;51.378;6.736;2023-08-12T00:40:16;19.90;99.90
59999;DHT22;45859;51.378;6.736;2023-08-12T00:42:42;19.90;99.90
59999;DHT22;45859;51.378;6.736;2023-08-12T00:45:11;19.80;99.90
59999;DHT22;45859;51.378;6.736;2023-08-12T00:47:39;19.80;99.90
59999;DHT22;45859;51.378;6.736;2023-08-12T00:50:09;19.80;99.90
59999;DHT22;45859;51.378;6.736;2023-08-12T00:52:37;19.80;99.90
59999;DHT22;45859;51.378;6.736;2023-08-12T00:55:04;19.80;99.90
59999;DHT22;45859;51.378;6.736;2023-08-12T00:57:30;19.80;99.90
59999;DHT22;45859;51.378;6.736;2023-08-12T00:59:56;19.80;99.90
59999;DHT22;45859;51.378;6.736;2023-08-12T01:02:22;19.80;99.90
59999;DHT22;45859;51.378;6.736;2023-08-12T01:04:48;19.80;99.90
59999;DHT22;45859;51.378;6.736;2023-08-12T01:07:14;19.80;99.90
59999;DHT22;45859;51.378;6.736;2023-08-12T01:09:39;19.80;99.90
59999;DHT22;45859;51.378;6.736;2023-08-12T01:12:12;19.80;99.90
59999;DHT22;45859;51.378;6.736;2023-08-12T01:15:01;19.80;99.90
59999;DHT22;45859;51.378;6.736;2023-08-12T01:17:29;19.80;99.90
59999;DHT22;45859;51.378;6.736;2023-08-12T01:19:56;19.80;99.90
59999;DHT22;45859;51.378;6.736;2023-08-12T01:22:23;19.80;99.90
59999;DHT22;45859;51.378;6.736;2023-08-12T01:24:51;19.80;99.90
59999;DHT22;45859;51.378;6.736;2023-08-12T01:27:17;19.70;99.90
59999;DHT22;45859;51.378;6.736;2023-08-12T01:29:45;19.70;99.90
59999;DHT22;45859;51.378;6.736;2023-08-12T01:32:15;19.70;99.90
59999;DHT22;45859;51.378;6.736;2023-08-12T01:34:49;19.70;99.90
59999;DHT22;45859;51.378;6.736;2023-08-12T01:37:23;19.70;99.90
59999;DHT22;45859;51.378;6.736;2023-08-12T01:39:50;19.70;99.90
59999;DHT22;45859;51.378;6.736;2023-08-12T01:42:18;19.60;99.90
59999;DHT22;45859;51.378;6.736;2023-08-12T01:44:46;19.60;99.90
59999;DHT22;45859;51.378;6.736;2023-08-12T01:47:12;19.60;99.90
59999;DHT22;45859;51.378;6.736;2023-08-12T01:49:37;19.60;99.90
59999;DHT22;45859;51.378;6.736;2023-08-12T01:52:03;19.60;99.90
59999;DHT22;45859;51.378;6.736;2023-08-12T01:54:29;19.70;99.90
59999;DHT22;45859;51.378;6.736;2023-08-12T01:57:03;18.50;99.90
59999;DHT22;45859;51.378;6.736;2023-08-12T01:59:34;19.70;99.90
59999;DHT22;45859;51.378;6.736;2023-08-12T02:02:00;19.70;99.90
59999;DHT22;45859;51.378;6.736;2023-08-12T02:04:26;19.70;99.90
59999;DHT22;45859;51.378;6.736;2023-08-12T02:06:52;19.70;99.90
59999;DHT22;45859;51.378;6.736;2023-08-12T02:09:18;19.70;99.90
59999;DHT22;45859;51.378;6.736;2023-08-12T02:11:44;19.70;99.90
59999;DHT22;45859;51.378;6.736;2023-08-12T02:14:09;19.70;99.90
59999;DHT22;45859;51.378;6.736;2023-08-12T02:16:35;19.70;99.90
59999;DHT22;45859;51.378;6.736;2023-08-12T02:19:01;19.80;99.90
59999;DHT22;45859;51.378;6.736;2023-08-12T02:21:27;19.70;99.90
59999;DHT22;45859;51.378;6.736;2023-08-12T02:23:52;19.70;99.90
59999;DHT22;45859;51.378;6.736;2023-08-12T02:26:18;19.70;99.90
59999;DHT22;45859;51.378;6.736;2023-08-12T02:28:47;19.70;99.90
59999;DHT22;45859;51.378;6.736;2023-08-12T02:31:15;19.70;99.90
59999;DHT22;45859;51.378;6.736;2023-08-12T02:33:41;19.70;99.90
59999;DHT22;45859;51.378;6.736;2023-08-12T02:36:06;19.70;99.90
59999;DHT22;45859;51.378;6.736;2023-08-12T02:38:32;19.70;99.90
59999;DHT22;45859;51.378;6.736;2023-08-12T02:40:58;19.60;99.90
59999;DHT22;45859;51.378;6.736;2023-08-12T02:43:23;19.60;99.90
59999;DHT22;45859;51.378;6.736;2023-08-12T02:45:49;19.60;99.90
59999;DHT22;45859;51.378;6.736;2023-08-12T02:48:15;19.60;99.90
59999;DHT22;45859;51.378;6.736;2023-08-12T02:50:40;19.60;99.90
59999;DHT22;45859;51.378;6.736;2023-08-12T02:53:07;19.60;99.90
59999;DHT22;45859;51.378;6.736;2023-08-12T02:55:33;19.60;99.90
59999;DHT22;45859;51.378;6.736;2023-08-12T02:58:00;19.60;99.90
59999;DHT22;45859;51.378;6.736;2023-08-12T03:00:26;19.60;99.90
59999;DHT22;45859;51.378;6.736;2023-08-12T03:02:53;19.60;99.90
59999;DHT22;45859;51.378;6.736;2023-08-12T03:05:19;19.60;99.90
59999;DHT22;45859;51.378;6.736;2023-08-12T03:07:44;19.60;99.90
59999;DHT22;45859;51.378;6.736;2023-08-12T03:10:10;19.60;99.90
59999;DHT22;45859;51.378;6.736;2023-08-12T03:12:36;19.60;99.90
59999;DHT22;45859;51.378;6.736;2023-08-12T03:15:03;19.50;99.90
59999;DHT22;45859;51.378;6.736;2023-08-12T03:17:29;19.50;99.90
59999;DHT22;45859;51.378;6.736;2023-08-12T03:19:54;19.60;99.90
59999;DHT22;45859;51.378;6.736;2023-08-12T03:22:22;19.50;99.90
59999;DHT22;45859;51.378;6.736;2023-08-12T03:24:48;19.50;99.90
59999;DHT22;45859;51.378;6.736;2023-08-12T03:27:14;19.50;99.90
59999;DHT22;45859;51.378;6.736;2023-08-12T03:29:39;19.50;99.90
59999;DHT22;45859;51.378;6.736;2023-08-12T03:32:05;19.50;99.90
59999;DHT22;45859;51.378;6.736;2023-08-12T03:34:31;19.50;99.90
59999;DHT22;45859;51.378;6.736;2023-08-12T03:36:57;19.60;99.90
59999;DHT22;45859;51.378;6.736;2023-08-12T03:39:22;19.50;99.90
59999;DHT22;45859;51.378;6.736;2023-08-12T03:41:48;19.50;99.90
59999;DHT22;45859;51.378;6.736;2023-08-12T03:44:16;19.50;99.90
59999;DHT22;45859;51.378;6.736;2023-08-12T03:46:41;19.50;99.90
59999;DHT22;45859;51.378;6.736;2023-08-12T03:49:07;19.50;99.90
59999;DHT22;45859;51.378;6.736;2023-08-12T03:51:33;19.60;99.90
59999;DHT22;45859;51.378;6.736;2023-08-12T03:53:59;19.50;99.90
59999;DHT22;45859;51.378;6.736;2023-08-12T03:56:25;19.50;99.90
59999;DHT22;45859;51.378;6.736;2023-08-12T03:58:51;19.50;99.90
59999;DHT22;45859;51.378;6.736;2023-08-12T04:01:17;19.50;99.90
59999;DHT22;45859;51.378;6.736;2023-08-12T04:03:42;19.50;99.90
59999;DHT22;45859;51.378;6.736;2023-08-12T04:06:08;19.60;99.90
59999;DHT22;45859;51.378;6.736;2023-08-12T04:08:34;19.60;99.90
59999;DHT22;45859;51.378;6.736;2023-08-12T04:11:00;19.60;99.90
59999;DHT22;45859;51.378;6.736;2023-08-12T04:13:25;19.50;99.90
59999;DHT22;45859;51.378;6.736;2023-08-12T04:15:51;19.50;99.90
59999;DHT22;45859;51.378;6.736;2023-08-12T04:18:18;19.50;99.90
59999;DHT22;45859;51.378;6.736;2023-08-12T04:20:46;19.50;99.90
59999;DHT22;45859;51.378;6.736;2023-08-12T04:23:13;19.50;99.90
59999;DHT22;45859;51.378;6.736;2023-08-12T04:25:38;19.50;99.90
59999;DHT22;45859;51.378;6.736;2023-08-12T04:28:04;19.50;99.90
59999;DHT22;45859;51.378;6.736;2023-08-12T04:30:30;19.40;99.90
59999;DHT22;45859;51.378;6.736;2023-08-12T04:32:55;19.40;99.90
59999;DHT22;45859;51.378;6.736;2023-08-12T04:35:21;19.40;99.90
59999;DHT22;45859;51.378;6.736;2023-08-12T04:37:47;19.40;99.90
59999;DHT22;45859;51.378;6.736;2023-08-12T04:40:13;19.50;99.90
59999;DHT22;45859;51.378;6.736;2023-08-12T04:42:38;19.50;99.90
59999;DHT22;45859;51.378;6.736;2023-08-12T04:45:04;19.50;99.90
59999;DHT22;45859;51.378;6.736;2023-08-12T04:47:30;19.50;99.90
59999;DHT22;45859;51.378;6.736;2023-08-12T04:49:56;19.50;99.90
59999;DHT22;45859;51.378;6.736;2023-08-12T04:52:22;19.60;99.90
59999;DHT22;45859;51.378;6.736;2023-08-12T04:54:47;19.60;99.90
59999;DHT22;45859;51.378;6.736;2023-08-12T04:57:13;19.60;99.90
59999;DHT22;45859;51.378;6.736;2023-08-12T04:59:39;19.70;99.90
59999;DHT22;45859;51.378;6.736;2023-08-12T05:02:04;19.70;99.90
59999;DHT22;45859;51.378;6.736;2023-08-12T05:04:30;19.80;99.90
59999;DHT22;45859;51.378;6.736;2023-08-12T05:06:56;19.70;99.90
59999;DHT22;45859;51.378;6.736;2023-08-12T05:09:22;19.70;99.90
59999;DHT22;45859;51.378;6.736;2023-08-12T05:11:47;19.70;99.90
59999;DHT22;45859;51.378;6.736;2023-08-12T05:14:13;19.70;99.90
59999;DHT22;45859;51.378;6.736;2023-08-12T05:16:38;19.70;99.90
59999;DHT22;45859;51.378;6.736;2023-08-12T05:19:04;19.70;99.90
59999;DHT22;45859;51.378;6.736;2023-08-12T05:21:30;19.60;99.90
59999;DHT22;45859;51.378;6.736;2023-08-12T05:23:55;19.60;99.90
59999;DHT22;45859;51.378;6.736;2023-08-12T05:26:21;19.60;99.90
59999;DHT22;45859;51.378;6.736;2023-08-12T05:28:47;19.60;99.90
59999;DHT22;45859;51.378;6.736;2023-08-12T05:31:12;19.70;99.90
59999;DHT22;45859;51.378;6.736;2023-08-12T05:33:38;19.70;99.90
59999;DHT22;45859;51.378;6.736;2023-08-12T05:36:04;19.70;99.90
59999;DHT22;45859;51.378;6.736;2023-08-12T05:38:29;19.70;99.90
59999;DHT22;45859;51.378;6.736;2023-08-12T05:40:55;19.70;99.90
59999;DHT22;45859;51.378;6.736;2023-08-12T05:43:21;19.70;99.90
59999;DHT22;45859;51.378;6.736;2023-08-12T05:45:48;19.70;99.90
59999;DHT22;45859;51.378;6.736;2023-08-12T05:48:13;19.70;99.90
59999;DHT22;45859;51.378;6.736;2023-08-12T05:50:39;19.70;99.90
59999;DHT22;45859;51.378;6.736;2023-08-12T05:53:05;19.70;99.90
59999;DHT22;45859;51.378;6.736;2023-08-12T05:55:33;19.70;99.90
59999;DHT22;45859;51.378;6.736;2023-08-12T05:58:00;19.70;99.90
59999;DHT22;45859;51.378;6.736;2023-08-12T06:00:26;19.70;99.90
59999;DHT22;45859;51.378;6.736;2023-08-12T06:02:51;19.70;99.90
59999;DHT22;45859;51.378;6.736;2023-08-12T06:05:18;19.70;99.90
59999;DHT22;45859;51.378;6.736;2023-08-12T06:07:43;19.70;99.90
59999;DHT22;45859;51.378;6.736;2023-08-12T06:10:09;19.70;99.90
59999;DHT22;45859;51.378;6.736;2023-08-12T06:12:35;19.70;99.90
59999;DHT22;45859;51.378;6.736;2023-08-12T06:15:01;19.70;99.90
59999;DHT22;45859;51.378;6.736;2023-08-12T06:17:27;19.70;99.90
59999;DHT22;45859;51.378;6.736;2023-08-12T06:19:52;19.70;99.90
59999;DHT22;45859;51.378;6.736;2023-08-12T06:22:18;19.70;99.90
59999;DHT22;45859;51.378;6.736;2023-08-12T06:24:43;19.70;99.90
59999;DHT22;45859;51.378;6.736;2023-08-12T06:27:09;21.90;99.90
59999;DHT22;45859;51.378;6.736;2023-08-12T06:29:35;19.60;99.90
59999;DHT22;45859;51.378;6.736;2023-08-12T06:32:00;19.60;99.90
59999;DHT22;45859;51.378;6.736;2023-08-12T06:34:26;19.60;99.90
59999;DHT22;45859;51.378;6.736;2023-08-12T06:36:52;19.60;99.90
59999;DHT22;45859;51.378;6.736;2023-08-12T06:39:17;19.60;99.90
59999;DHT22;45859;51.378;6.736;2023-08-12T06:41:43;19.60;99.90
59999;DHT22;45859;51.378;6.736;2023-08-12T06:44:09;19.60;99.90
59999;DHT22;45859;51.378;6.736;2023-08-12T06:46:34;19.60;99.90
59999;DHT22;45859;51.378;6.736;2023-08-12T06:49:00;19.60;99.90
59999;DHT22;45859;51.378;6.736;2023-08-12T06:51:26;19.60;99.90
59999;DHT22;45859;51.378;6.736;2023-08-12T06:53:51;19.70;99.90
59999;DHT22;45859;51.378;6.736;2023-08-12T06:56:17;19.60;99.90
59999;DHT22;45859;51.378;6.736;2023-08-12T06:58:43;19.70;99.90
59999;DHT22;45859;51.378;6.736;2023-08-12T07:01:08;19.70;99.90
59999;DHT22;45859;51.378;6.736;2023-08-12T07:03:34;19.70;99.90
59999;DHT22;45859;51.378;6.736;2023-08-12T07:06:00;19.70;99.90
59999;DHT22;45859;51.378;6.736;2023-08-12T07:08:25;19.70;99.90
59999;DHT22;45859;51.378;6.736;2023-08-12T07:10:52;19.80;99.90
59999;DHT22;45859;51.378;6.736;2023-08-12T07:13:18;19.80;99.90
59999;DHT22;45859;51.378;6.736;2023-08-12T07:15:44;19.80;99.90
59999;DHT22;45859;51.378;6.736;2023-08-12T07:18:10;19.80;99.90
59999;DHT22;45859;51.378;6.736;2023-08-12T07:20:35;19.80;99.90
59999;DHT22;45859;51.378;6.736;2023-08-12T07:25:28;19.90;99.90
59999;DHT22;45859;51.378;6.736;2023-08-12T07:27:54;19.90;99.90
59999;DHT22;45859;51.378;6.736;2023-08-12T07:30:19;19.90;99.90
59999;DHT22;45859;51.378;6.736;2023-08-12T07:32:45;19.90;99.90
59999;DHT22;45859;51.378;6.736;2023-08-12T07:35:11;20.00;99.90
59999;DHT22;45859;51.378;6.736;2023-08-12T07:37:37;20.00;99.90
59999;DHT22;45859;51.378;6.736;2023-08-12T07:40:03;20.00;99.90
59999;DHT22;45859;51.378;6.736;2023-08-12T07:42:28;20.00;99.90
59999;DHT22;45859;51.378;6.736;2023-08-12T07:44:54;20.10;99.90
59999;DHT22;45859;51.378;6.736;2023-08-12T07:47:20;19.90;99.90
59999;DHT22;45859;51.378;6.736;2023-08-12T07:49:45;20.10;99.90
59999;DHT22;45859;51.378;6.736;2023-08-12T07:52:11;20.30;99.90
59999;DHT22;45859;51.378;6.736;2023-08-12T07:54:36;20.30;99.90
59999;DHT22;45859;51.378;6.736;2023-08-12T07:57:02;20.30;99.90
59999;DHT22;45859;51.378;6.736;2023-08-12T07:59:29;20.40;99.90
59999;DHT22;45859;51.378;6.736;2023-08-12T08:01:54;20.50;99.90
59999;DHT22;45859;51.378;6.736;2023-08-12T08:04:20;20.50;99.90
59999;DHT22;45859;51.378;6.736;2023-08-12T08:06:45;20.50;99.90
59999;DHT22;45859;51.378;6.736;2023-08-12T08:09:11;20.60;99.90
59999;DHT22;45859;51.378;6.736;2023-08-12T08:11:37;20.50;99.90
59999;DHT22;45859;51.378;6.736;2023-08-12T08:14:02;20.50;99.90
59999;DHT22;45859;51.378;6.736;2023-08-12T08:16:28;20.50;99.90
59999;DHT22;45859;51.378;6.736;2023-08-12T08:18:54;20.50;99.90
59999;DHT22;45859;51.378;6.736;2023-08-12T08:21:19;20.40;99.90
59999;DHT22;45859;51.378;6.736;2023-08-12T08:23:46;20.40;99.90
59999;DHT22;45859;51.378;6.736;2023-08-12T08:26:12;20.50;99.90
59999;DHT22;45859;51.378;6.736;2023-08-12T08:28:38;20.50;99.90
59999;DHT22;45859;51.378;6.736;2023-08-12T08:31:03;20.60;99.90
59999;DHT22;45859;51.378;6.736;2023-08-12T08:33:29;20.60;99.90
59999;DHT22;45859;51.378;6.736;2023-08-12T08:35:55;20.50;99.90
59999;DHT22;45859;51.378;6.736;2023-08-12T08:38:20;20.60;99.90
59999;DHT22;45859;51.378;6.736;2023-08-12T08:40:48;20.60;99.90
59999;DHT22;45859;51.378;6.736;2023-08-12T08:43:15;20.60;99.90
59999;DHT22;45859;51.378;6.736;2023-08-12T08:45:45;20.70;99.90
59999;DHT22;45859;51.378;6.736;2023-08-12T08:48:12;20.70;99.90
59999;DHT22;45859;51.378;6.736;2023-08-12T08:50:39;20.70;99.90
59999;DHT22;45859;51.378;6.736;2023-08-12T08:53:06;20.80;99.90
59999;DHT22;45859;51.378;6.736;2023-08-12T08:55:32;20.80;99.90
59999;DHT22;45859;51.378;6.736;2023-08-12T08:57:58;21.90;99.90
59999;DHT22;45859;51.378;6.736;2023-08-12T09:00:25;20.80;99.90
59999;DHT22;45859;51.378;6.736;2023-08-12T09:02:51;20.30;99.90
59999;DHT22;45859;51.378;6.736;2023-08-12T09:05:18;20.70;99.90
59999;DHT22;45859;51.378;6.736;2023-08-12T09:07:46;20.80;99.90
59999;DHT22;45859;51.378;6.736;2023-08-12T09:10:12;20.70;99.90
59999;DHT22;45859;51.378;6.736;2023-08-12T09:12:38;20.60;99.90
59999;DHT22;45859;51.378;6.736;2023-08-12T09:15:05;20.60;99.90
59999;DHT22;45859;51.378;6.736;2023-08-12T09:17:32;20.60;99.90
59999;DHT22;45859;51.378;6.736;2023-08-12T09:19:58;20.60;99.90
59999;DHT22;45859;51.378;6.736;2023-08-12T09:22:25;20.60;99.90
59999;DHT22;45859;51.378;6.736;2023-08-12T09:24:56;20.60;99.90
59999;DHT22;45859;51.378;6.736;2023-08-12T09:27:22;20.70;99.90
59999;DHT22;45859;51.378;6.736;2023-08-12T09:29:47;20.70;99.90
59999;DHT22;45859;51.378;6.736;2023-08-12T09:32:18;20.70;99.90
59999;DHT22;45859;51.378;6.736;2023-08-12T09:34:49;20.70;99.90
59999;DHT22;45859;51.378;6.736;2023-08-12T09:37:15;20.60;99.90
59999;DHT22;45859;51.378;6.736;2023-08-12T09:39:41;20.60;99.90
59999;DHT22;45859;51.378;6.736;2023-08-12T09:42:07;20.60;99.90
59999;DHT22;45859;51.378;6.736;2023-08-12T09:44:37;20.60;99.90
59999;DHT22;45859;51.378;6.736;2023-08-12T09:47:04;20.50;99.90
59999;DHT22;45859;51.378;6.736;2023-08-12T09:49:29;20.50;99.90
59999;DHT22;45859;51.378;6.736;2023-08-12T09:51:55;20.40;99.90
59999;DHT22;45859;51.378;6.736;2023-08-12T09:54:22;20.40;99.90
59999;DHT22;45859;51.378;6.736;2023-08-12T09:56:54;20.40;99.90
59999;DHT22;45859;51.378;6.736;2023-08-12T09:59:23;20.40;99.90
59999;DHT22;45859;51.378;6.736;2023-08-12T10:01:50;20.60;99.90
59999;DHT22;45859;51.378;6.736;2023-08-12T10:04:17;20.70;99.90
59999;DHT22;45859;51.378;6.736;2023-08-12T10:06:44;20.80;99.90
59999;DHT22;45859;51.378;6.736;2023-08-12T10:09:10;20.90;99.90
59999;DHT22;45859;51.378;6.736;2023-08-12T10:11:37;20.80;99.90
59999;DHT22;45859;51.378;6.736;2023-08-12T10:14:04;20.90;99.90
59999;DHT22;45859;51.378;6.736;2023-08-12T10:16:30;20.90;99.90
59999;DHT22;45859;51.378;6.736;2023-08-12T10:18:57;21.00;99.90
59999;DHT22;45859;51.378;6.736;2023-08-12T10:21:24;21.10;99.90
59999;DHT22;45859;51.378;6.736;2023-08-12T10:23:50;21.20;99.90
59999;DHT22;45859;51.378;6.736;2023-08-12T10:26:17;21.20;99.90
59999;DHT22;45859;51.378;6.736;2023-08-12T10:28:43;21.20;99.90
59999;DHT22;45859;51.378;6.736;2023-08-12T10:31:11;21.20;99.90
59999;DHT22;45859;51.378;6.736;2023-08-12T10:33:40;21.20;99.90
59999;DHT22;45859;51.378;6.736;2023-08-12T10:36:06;21.20;99.90
59999;DHT22;45859;51.378;6.736;2023-08-12T10:38:33;21.00;99.90
59999;DHT22;45859;51.378;6.736;2023-08-12T10:41:18;20.90;99.90
59999;DHT22;45859;51.378;6.736;2023-08-12T10:43:53;21.70;99.90
59999;DHT22;45859;51.378;6.736;2023-08-12T10:46:33;20.90;99.90
59999;DHT22;45859;51.378;6.736;2023-08-12T10:49:01;20.90;99.90
59999;DHT22;45859;51.378;6.736;2023-08-12T10:51:51;21.00;99.90
59999;DHT22;45859;51.378;6.736;2023-08-12T10:54:28;21.10;99.90
59999;DHT22;45859;51.378;6.736;2023-08-12T11:02:26;20.90;99.90
59999;DHT22;45859;51.378;6.736;2023-08-12T11:04:56;21.30;99.90
59999;DHT22;45859;51.378;6.736;2023-08-12T11:07:31;21.40;99.90
59999;DHT22;45859;51.378;6.736;2023-08-12T11:10:05;21.50;99.90
59999;DHT22;45859;51.378;6.736;2023-08-12T11:12:35;21.50;99.90
59999;DHT22;45859;51.378;6.736;2023-08-12T11:15:02;21.50;99.90
59999;DHT22;45859;51.378;6.736;2023-08-12T11:17:40;21.60;99.90
59999;DHT22;45859;51.378;6.736;2023-08-12T11:20:10;21.50;99.90
59999;DHT22;45859;51.378;6.736;2023-08-12T11:22:40;21.60;99.90
59999;DHT22;45859;51.378;6.736;2023-08-12T11:25:15;21.60;99.90
59999;DHT22;45859;51.378;6.736;2023-08-12T11:27:42;21.70;99.90
59999;DHT22;45859;51.378;6.736;2023-08-12T11:30:14;21.70;99.90
59999;DHT22;45859;51.378;6.736;2023-08-12T11:32:45;21.70;99.90
59999;DHT22;45859;51.378;6.736;2023-08-12T11:35:12;21.80;99.90
59999;DHT22;45859;51.378;6.736;2023-08-12T11:37:39;22.00;99.90
59999;DHT22;45859;51.378;6.736;2023-08-12T11:40:07;22.20;99.90
59999;DHT22;45859;51.378;6.736;2023-08-12T11:42:36;22.50;99.90
59999;DHT22;45859;51.378;6.736;2023-08-12T11:45:05;22.60;99.90
59999;DHT22;45859;51.378;6.736;2023-08-12T11:47:33;22.50;99.90
59999;DHT22;45859;51.378;6.736;2023-08-12T11:49:58;22.40;99.90
59999;DHT22;45859;51.378;6.736;2023-08-12T11:52:24;22.00;99.90
59999;DHT22;45859;51.378;6.736;2023-08-12T11:54:50;21.80;99.90
59999;DHT22;45859;51.378;6.736;2023-08-12T11:57:18;21.40;99.90
59999;DHT22;45859;51.378;6.736;2023-08-12T11:59:44;21.10;99.90
59999;DHT22;45859;51.378;6.736;2023-08-12T12:02:10;20.90;99.90
59999;DHT22;45859;51.378;6.736;2023-08-12T12:04:37;20.70;99.90
59999;DHT22;45859;51.378;6.736;2023-08-12T12:07:03;20.60;99.90
59999;DHT22;45859;51.378;6.736;2023-08-12T12:09:32;20.50;99.90
59999;DHT22;45859;51.378;6.736;2023-08-12T12:11:58;20.50;99.90
59999;DHT22;45859;51.378;6.736;2023-08-12T12:14:25;20.50;99.90
59999;DHT22;45859;51.378;6.736;2023-08-12T12:16:50;20.50;99.90
59999;DHT22;45859;51.378;6.736;2023-08-12T12:19:23;20.50;99.90
59999;DHT22;45859;51.378;6.736;2023-08-12T12:21:50;20.50;99.90
59999;DHT22;45859;51.378;6.736;2023-08-12T12:24:16;20.50;99.90
59999;DHT22;45859;51.378;6.736;2023-08-12T12:26:43;20.30;99.90
59999;DHT22;45859;51.378;6.736;2023-08-12T12:29:10;20.40;99.90
59999;DHT22;45859;51.378;6.736;2023-08-12T12:31:37;20.20;99.90
59999;DHT22;45859;51.378;6.736;2023-08-12T12:34:03;20.30;99.90
59999;DHT22;45859;51.378;6.736;2023-08-12T12:36:30;20.40;99.90
59999;DHT22;45859;51.378;6.736;2023-08-12T12:38:56;20.50;99.90
59999;DHT22;45859;51.378;6.736;2023-08-12T12:41:21;20.60;99.90
59999;DHT22;45859;51.378;6.736;2023-08-12T12:43:47;20.60;99.90
59999;DHT22;45859;51.378;6.736;2023-08-12T12:46:13;20.70;99.90
59999;DHT22;45859;51.378;6.736;2023-08-12T12:48:38;20.70;99.90
59999;DHT22;45859;51.378;6.736;2023-08-12T12:51:04;20.90;99.90
59999;DHT22;45859;51.378;6.736;2023-08-12T12:53:30;21.10;99.90
59999;DHT22;45859;51.378;6.736;2023-08-12T12:55:55;21.40;99.90
59999;DHT22;45859;51.378;6.736;2023-08-12T12:58:23;21.40;99.90
59999;DHT22;45859;51.378;6.736;2023-08-12T13:00:49;21.50;99.90
59999;DHT22;45859;51.378;6.736;2023-08-12T13:03:14;21.60;99.90
59999;DHT22;45859;51.378;6.736;2023-08-12T13:05:40;21.60;99.90
59999;DHT22;45859;51.378;6.736;2023-08-12T13:08:06;21.50;99.90
59999;DHT22;45859;51.378;6.736;2023-08-12T13:10:31;21.50;99.90
59999;DHT22;45859;51.378;6.736;2023-08-12T13:12:57;21.60;99.90
59999;DHT22;45859;51.378;6.736;2023-08-12T13:15:23;21.60;99.90
59999;DHT22;45859;51.378;6.736;2023-08-12T13:17:50;21.70;99.90
59999;DHT22;45859;51.378;6.736;2023-08-12T13:20:16;21.40;99.90
59999;DHT22;45859;51.378;6.736;2023-08-12T13:22:41;21.30;99.90
59999;DHT22;45859;51.378;6.736;2023-08-12T13:25:07;21.20;99.90
59999;DHT22;45859;51.378;6.736;2023-08-12T13:27:33;21.00;99.90
59999;DHT22;45859;51.378;6.736;2023-08-12T13:29:58;20.90;99.90
59999;DHT22;45859;51.378;6.736;2023-08-12T13:32:24;20.80;99.90
59999;DHT22;45859;51.378;6.736;2023-08-12T13:34:50;20.80;99.90
59999;DHT22;45859;51.378;6.736;2023-08-12T13:37:16;20.80;99.90
59999;DHT22;45859;51.378;6.736;2023-08-12T13:39:41;20.90;99.90
59999;DHT22;45859;51.378;6.736;2023-08-12T13:42:07;21.00;99.90
59999;DHT22;45859;51.378;6.736;2023-08-12T13:44:33;21.90;99.90
59999;DHT22;45859;51.378;6.736;2023-08-12T13:46:58;21.60;99.90
59999;DHT22;45859;51.378;6.736;2023-08-12T13:49:24;21.90;99.90
59999;DHT22;45859;51.378;6.736;2023-08-12T13:51:50;22.00;99.90
59999;DHT22;45859;51.378;6.736;2023-08-12T13:54:16;22.10;99.90
59999;DHT22;45859;51.378;6.736;2023-08-12T13:56:41;22.10;99.90
59999;DHT22;45859;51.378;6.736;2023-08-12T13:59:07;22.20;99.90
59999;DHT22;45859;51.378;6.736;2023-08-12T14:01:33;22.30;99.90
59999;DHT22;45859;51.378;6.736;2023-08-12T14:03:58;22.40;99.90
59999;DHT22;45859;51.378;6.736;2023-08-12T14:06:24;22.50;99.90
59999;DHT22;45859;51.378;6.736;2023-08-12T14:08:50;22.60;99.90
59999;DHT22;45859;51.378;6.736;2023-08-12T14:11:15;22.70;99.90
59999;DHT22;45859;51.378;6.736;2023-08-12T14:13:41;22.60;99.90
59999;DHT22;45859;51.378;6.736;2023-08-12T14:16:07;22.70;99.90
59999;DHT22;45859;51.378;6.736;2023-08-12T14:18:33;22.70;99.90
59999;DHT22;45859;51.378;6.736;2023-08-12T14:20:58;22.40;99.90
59999;DHT22;45859;51.378;6.736;2023-08-12T14:23:24;22.30;99.90
59999;DHT22;45859;51.378;6.736;2023-08-12T14:25:50;22.10;99.90
59999;DHT22;45859;51.378;6.736;2023-08-12T14:28:15;21.90;99.90
59999;DHT22;45859;51.378;6.736;2023-08-12T14:30:41;21.70;99.90
59999;DHT22;45859;51.378;6.736;2023-08-12T14:33:07;21.80;99.90
59999;DHT22;45859;51.378;6.736;2023-08-12T14:35:36;21.90;99.90
59999;DHT22;45859;51.378;6.736;2023-08-12T14:38:02;22.10;99.90
59999;DHT22;45859;51.378;6.736;2023-08-12T14:40:27;22.20;99.90
59999;DHT22;45859;51.378;6.736;2023-08-12T14:42:53;22.30;99.90
59999;DHT22;45859;51.378;6.736;2023-08-12T14:45:19;22.30;99.90
59999;DHT22;45859;51.378;6.736;2023-08-12T14:47:45;22.40;99.90
59999;DHT22;45859;51.378;6.736;2023-08-12T14:50:11;22.40;99.90
59999;DHT22;45859;51.378;6.736;2023-08-12T14:52:37;22.50;99.90
59999;DHT22;45859;51.378;6.736;2023-08-12T14:55:03;22.50;99.90
59999;DHT22;45859;51.378;6.736;2023-08-12T14:57:29;22.60;99.90
59999;DHT22;45859;51.378;6.736;2023-08-12T14:59:54;22.70;99.90
59999;DHT22;45859;51.378;6.736;2023-08-12T15:02:21;22.80;99.90
59999;DHT22;45859;51.378;6.736;2023-08-12T15:04:48;23.00;99.90
59999;DHT22;45859;51.378;6.736;2023-08-12T15:07:14;23.00;99.90
59999;DHT22;45859;51.378;6.736;2023-08-12T15:09:42;23.10;99.90
59999;DHT22;45859;51.378;6.736;2023-08-12T15:12:07;23.10;99.90
59999;DHT22;45859;51.378;6.736;2023-08-12T15:14:33;23.10;99.90
59999;DHT22;45859;51.378;6.736;2023-08-12T15:16:59;23.10;99.90
59999;DHT22;45859;51.378;6.736;2023-08-12T15:19:25;23.10;99.90
59999;DHT22;45859;51.378;6.736;2023-08-12T15:21:51;23.10;99.90
59999;DHT22;45859;51.378;6.736;2023-08-12T15:24:17;23.10;99.90
59999;DHT22;45859;51.378;6.736;2023-08-12T15:26:43;23.10;99.90
59999;DHT22;45859;51.378;6.736;2023-08-12T15:29:08;23.10;99.90
59999;DHT22;45859;51.378;6.736;2023-08-12T15:31:36;23.10;99.90
59999;DHT22;45859;51.378;6.736;2023-08-12T15:34:02;23.20;99.90